sensor_id;sensor_type;location;lat;lon;timestamp;temperature;humidity
20102;DHT22;10210;52.284;9.892;2024-01-16T00:01:43;4.20;99.90
20102;DHT22;10210;52.284;9.892;2024-01-16T00:04:09;4.20;99.90
20102;DHT22;10210;52.284;9.892;2024-01-16T00:06:41;4.10;99.90
20102;DHT22;10210;52.284;9.892;2024-01-16T00:09:08;4.10;99.90
20102;DHT22;10210;52.284;9.892;2024-01-16T00:11:43;4.10;99.90
20102;DHT22;10210;52.284;9.892;2024-01-16T00:14:09;4.10;99.90
20102;DHT22;10210;52.284;9.892;2024-01-16T00:16:47;4.10;99.90
20102;DHT22;10210;52.284;9.892;2024-01-16T00:19:14;4.10;99.90
20102;DHT22;10210;52.284;9.892;2024-01-16T00:21:43;4.10;99.90
20102;DHT22;10210;52.284;9.892;2024-01-16T00:24:16;4.10;99.90
20102;DHT22;10210;52.284;9.892;2024-01-16T00:26:42;4.10;99.90
20102;DHT22;10210;52.284;9.892;2024-01-16T00:29:08;4.10;99.90
20102;DHT22;10210;52.284;9.892;2024-01-16T00:31:38;4.10;99.90
20102;DHT22;10210;52.284;9.892;2024-01-16T00:34:04;4.10;99.90
20102;DHT22;10210;52.284;9.892;2024-01-16T00:36:30;4.10;99.90
20102;DHT22;10210;52.284;9.892;2024-01-16T00:38:56;4.10;99.90
20102;DHT22;10210;52.284;9.892;2024-01-16T00:41:22;4.10;99.90
20102;DHT22;10210;52.284;9.892;2024-01-16T00:43:47;4.00;99.90
20102;DHT22;10210;52.284;9.892;2024-01-16T00:46:13;4.10;99.90
20102;DHT22;10210;52.284;9.892;2024-01-16T00:48:39;4.00;99.90
20102;DHT22;10210;52.284;9.892;2024-01-16T00:51:05;4.00;99.90
20102;DHT22;10210;52.284;9.892;2024-01-16T00:53:31;4.10;99.90
20102;DHT22;10210;52.284;9.892;2024-01-16T00:55:56;4.00;99.90
20102;DHT22;10210;52.284;9.892;2024-01-16T00:58:22;4.00;99.90
20102;DHT22;10210;52.284;9.892;2024-01-16T01:00:48;4.00;99.90
20102;DHT22;10210;52.284;9.892;2024-01-16T01:03:15;4.00;99.90
20102;DHT22;10210;52.284;9.892;2024-01-16T01:05:41;4.10;99.90
20102;DHT22;10210;52.284;9.892;2024-01-16T01:08:07;4.00;99.90
20102;DHT22;10210;52.284;9.892;2024-01-16T01:10:33;4.00;99.90
20102;DHT22;10210;52.284;9.892;2024-01-16T01:12:59;4.10;99.90
20102;DHT22;10210;52.284;9.892;2024-01-16T01:15:24;4.00;99.90
20102;DHT22;10210;52.284;9.892;2024-01-16T01:17:50;4.10;99.90
20102;DHT22;10210;52.284;9.892;2024-01-16T01:20:17;4.10;99.90
20102;DHT22;10210;52.284;9.892;2024-01-16T01:22:44;4.00;99.90
20102;DHT22;10210;52.284;9.892;2024-01-16T01:25:11;4.10;99.90
20102;DHT22;10210;52.284;9.892;2024-01-16T01:27:38;4.10;99.90
20102;DHT22;10210;52.284;9.892;2024-01-16T01:30:07;4.10;99.90
20102;DHT22;10210;52.284;9.892;2024-01-16T01:32:36;4.10;99.90
20102;DHT22;10210;52.284;9.892;2024-01-16T01:35:03;4.00;99.90
20102;DHT22;10210;52.284;9.892;2024-01-16T01:37:30;4.00;99.90
20102;DHT22;10210;52.284;9.892;2024-01-16T01:39:56;4.00;99.90
20102;DHT22;10210;52.284;9.892;2024-01-16T01:42:22;4.00;99.90
20102;DHT22;10210;52.284;9.892;2024-01-16T01:44:48;4.00;99.90
20102;DHT22;10210;52.284;9.892;2024-01-16T01:47:14;4.00;99.90
20102;DHT22;10210;52.284;9.892;2024-01-16T01:49:40;4.00;99.90
20102;DHT22;10210;52.284;9.892;2024-01-16T01:52:07;4.00;99.90
20102;DHT22;10210;52.284;9.892;2024-01-16T01:54:36;4.00;99.90
20102;DHT22;10210;52.284;9.892;2024-01-16T01:57:02;4.00;99.90
20102;DHT22;10210;52.284;9.892;2024-01-16T01:59:32;3.90;99.90
20102;DHT22;10210;52.284;9.892;2024-01-16T02:01:58;3.90;99.90
20102;DHT22;10210;52.284;9.892;2024-01-16T02:04:26;3.90;99.90
20102;DHT22;10210;52.284;9.892;2024-01-16T02:06:54;3.90;99.90
20102;DHT22;10210;52.284;9.892;2024-01-16T02:09:22;3.90;99.90
20102;DHT22;10210;52.284;9.892;2024-01-16T02:11:48;3.80;99.90
20102;DHT22;10210;52.284;9.892;2024-01-16T02:14:13;3.80;99.90
20102;DHT22;10210;52.284;9.892;2024-01-16T02:16:42;3.80;99.90
20102;DHT22;10210;52.284;9.892;2024-01-16T02:19:10;3.80;99.90
20102;DHT22;10210;52.284;9.892;2024-01-16T02:21:42;3.80;99.90
20102;DHT22;10210;52.284;9.892;2024-01-16T02:24:13;3.80;99.90
20102;DHT22;10210;52.284;9.892;2024-01-16T02:26:39;3.80;99.90
20102;DHT22;10210;52.284;9.892;2024-01-16T02:29:04;3.80;99.90
20102;DHT22;10210;52.284;9.892;2024-01-16T02:31:33;3.80;99.90
20102;DHT22;10210;52.284;9.892;2024-01-16T02:33:59;3.80;99.90
20102;DHT22;10210;52.284;9.892;2024-01-16T02:36:26;3.80;99.90
20102;DHT22;10210;52.284;9.892;2024-01-16T02:38:52;3.80;99.90
20102;DHT22;10210;52.284;9.892;2024-01-16T02:41:18;3.80;99.90
20102;DHT22;10210;52.284;9.892;2024-01-16T02:43:44;3.80;99.90
20102;DHT22;10210;52.284;9.892;2024-01-16T02:46:10;3.80;99.90
20102;DHT22;10210;52.284;9.892;2024-01-16T02:48:37;3.80;99.90
20102;DHT22;10210;52.284;9.892;2024-01-16T02:51:03;3.80;99.90
20102;DHT22;10210;52.284;9.892;2024-01-16T02:53:30;3.80;99.90
20102;DHT22;10210;52.284;9.892;2024-01-16T02:55:56;3.80;99.90
20102;DHT22;10210;52.284;9.892;2024-01-16T02:58:26;3.70;99.90
20102;DHT22;10210;52.284;9.892;2024-01-16T03:00:52;3.70;99.90
20102;DHT22;10210;52.284;9.892;2024-01-16T03:03:18;3.70;99.90
20102;DHT22;10210;52.284;9.892;2024-01-16T03:05:44;3.70;99.90
20102;DHT22;10210;52.284;9.892;2024-01-16T03:08:10;3.70;99.90
20102;DHT22;10210;52.284;9.892;2024-01-16T03:10:36;3.70;99.90
20102;DHT22;10210;52.284;9.892;2024-01-16T03:13:01;3.60;99.90
20102;DHT22;10210;52.284;9.892;2024-01-16T03:15:28;3.70;99.90
20102;DHT22;10210;52.284;9.892;2024-01-16T03:17:56;3.60;99.90
20102;DHT22;10210;52.284;9.892;2024-01-16T03:20:22;3.60;99.90
20102;DHT22;10210;52.284;9.892;2024-01-16T03:22:49;3.60;99.90
20102;DHT22;10210;52.284;9.892;2024-01-16T03:25:18;3.60;99.90
20102;DHT22;10210;52.284;9.892;2024-01-16T03:27:45;3.60;99.90
20102;DHT22;10210;52.284;9.892;2024-01-16T03:30:11;3.60;99.90
20102;DHT22;10210;52.284;9.892;2024-01-16T03:32:37;3.60;99.90
20102;DHT22;10210;52.284;9.892;2024-01-16T03:35:04;3.60;99.90
20102;DHT22;10210;52.284;9.892;2024-01-16T03:37:30;3.60;99.90
20102;DHT22;10210;52.284;9.892;2024-01-16T03:39:56;3.60;99.90
20102;DHT22;10210;52.284;9.892;2024-01-16T03:42:22;3.60;99.90
20102;DHT22;10210;52.284;9.892;2024-01-16T03:44:48;3.60;99.90
20102;DHT22;10210;52.284;9.892;2024-01-16T03:47:15;3.60;99.90
20102;DHT22;10210;52.284;9.892;2024-01-16T03:49:41;3.50;99.90
20102;DHT22;10210;52.284;9.892;2024-01-16T03:52:06;3.50;99.90
20102;DHT22;10210;52.284;9.892;2024-01-16T03:54:32;3.50;99.90
20102;DHT22;10210;52.284;9.892;2024-01-16T03:56:58;3.50;99.90
20102;DHT22;10210;52.284;9.892;2024-01-16T03:59:23;3.50;99.90
20102;DHT22;10210;52.284;9.892;2024-01-16T04:01:50;3.50;99.90
20102;DHT22;10210;52.284;9.892;2024-01-16T04:04:16;3.50;99.90
20102;DHT22;10210;52.284;9.892;2024-01-16T04:06:42;3.50;99.90
20102;DHT22;10210;52.284;9.892;2024-01-16T04:09:08;3.40;99.90
20102;DHT22;10210;52.284;9.892;2024-01-16T04:11:35;3.40;99.90
20102;DHT22;10210;52.284;9.892;2024-01-16T04:14:01;3.50;99.90
20102;DHT22;10210;52.284;9.892;2024-01-16T04:16:27;3.40;99.90
20102;DHT22;10210;52.284;9.892;2024-01-16T04:18:53;3.40;99.90
20102;DHT22;10210;52.284;9.892;2024-01-16T04:21:19;3.40;99.90
20102;DHT22;10210;52.284;9.892;2024-01-16T04:23:45;3.40;99.90
20102;DHT22;10210;52.284;9.892;2024-01-16T04:26:10;3.40;99.90
20102;DHT22;10210;52.284;9.892;2024-01-16T04:28:36;3.40;99.90
20102;DHT22;10210;52.284;9.892;2024-01-16T04:31:05;3.40;99.90
20102;DHT22;10210;52.284;9.892;2024-01-16T04:33:31;3.40;99.90
20102;DHT22;10210;52.284;9.892;2024-01-16T04:35:57;3.40;99.90
20102;DHT22;10210;52.284;9.892;2024-01-16T04:38:22;3.40;99.90
20102;DHT22;10210;52.284;9.892;2024-01-16T04:40:49;3.40;99.90
20102;DHT22;10210;52.284;9.892;2024-01-16T04:43:15;3.40;99.90
20102;DHT22;10210;52.284;9.892;2024-01-16T04:45:41;3.40;99.90
20102;DHT22;10210;52.284;9.892;2024-01-16T04:48:07;3.40;99.90
20102;DHT22;10210;52.284;9.892;2024-01-16T04:50:34;3.40;99.90
20102;DHT22;10210;52.284;9.892;2024-01-16T04:53:00;3.40;99.90
20102;DHT22;10210;52.284;9.892;2024-01-16T04:55:30;3.40;99.90
20102;DHT22;10210;52.284;9.892;2024-01-16T04:57:57;3.50;99.90
20102;DHT22;10210;52.284;9.892;2024-01-16T05:00:23;3.40;99.90
20102;DHT22;10210;52.284;9.892;2024-01-16T05:02:49;3.50;99.90
20102;DHT22;10210;52.284;9.892;2024-01-16T05:05:16;3.40;99.90
20102;DHT22;10210;52.284;9.892;2024-01-16T05:07:42;3.50;99.90
20102;DHT22;10210;52.284;9.892;2024-01-16T05:10:12;3.50;99.90
20102;DHT22;10210;52.284;9.892;2024-01-16T05:12:41;3.50;99.90
20102;DHT22;10210;52.284;9.892;2024-01-16T05:15:07;3.50;99.90
20102;DHT22;10210;52.284;9.892;2024-01-16T05:17:34;3.50;99.90
20102;DHT22;10210;52.284;9.892;2024-01-16T05:20:01;3.50;99.90
20102;DHT22;10210;52.284;9.892;2024-01-16T05:22:29;3.50;99.90
20102;DHT22;10210;52.284;9.892;2024-01-16T05:24:54;3.50;99.90
20102;DHT22;10210;52.284;9.892;2024-01-16T05:27:20;3.50;99.90
20102;DHT22;10210;52.284;9.892;2024-01-16T05:29:46;3.50;99.90
20102;DHT22;10210;52.284;9.892;2024-01-16T05:32:13;3.50;99.90
20102;DHT22;10210;52.284;9.892;2024-01-16T05:34:39;3.50;99.90
20102;DHT22;10210;52.284;9.892;2024-01-16T05:37:05;3.50;99.90
20102;DHT22;10210;52.284;9.892;2024-01-16T05:39:31;3.50;99.90
20102;DHT22;10210;52.284;9.892;2024-01-16T05:41:56;3.50;99.90
20102;DHT22;10210;52.284;9.892;2024-01-16T05:44:22;3.40;99.90
20102;DHT22;10210;52.284;9.892;2024-01-16T05:46:48;3.40;99.90
20102;DHT22;10210;52.284;9.892;2024-01-16T05:49:13;3.40;99.90
20102;DHT22;10210;52.284;9.892;2024-01-16T05:51:39;3.40;99.90
20102;DHT22;10210;52.284;9.892;2024-01-16T05:54:05;3.40;99.90
20102;DHT22;10210;52.284;9.892;2024-01-16T05:56:31;3.40;99.90
20102;DHT22;10210;52.284;9.892;2024-01-16T05:58:57;3.40;99.90
20102;DHT22;10210;52.284;9.892;2024-01-16T06:01:23;3.40;99.90
20102;DHT22;10210;52.284;9.892;2024-01-16T06:03:48;3.40;99.90
20102;DHT22;10210;52.284;9.892;2024-01-16T06:06:14;3.40;99.90
20102;DHT22;10210;52.284;9.892;2024-01-16T06:08:40;3.40;99.90
20102;DHT22;10210;52.284;9.892;2024-01-16T06:11:06;3.40;99.90
20102;DHT22;10210;52.284;9.892;2024-01-16T06:13:31;3.40;99.90
20102;DHT22;10210;52.284;9.892;2024-01-16T06:15:58;3.40;99.90
20102;DHT22;10210;52.284;9.892;2024-01-16T06:18:23;3.40;99.90
20102;DHT22;10210;52.284;9.892;2024-01-16T06:20:50;3.40;99.90
20102;DHT22;10210;52.284;9.892;2024-01-16T06:23:15;3.40;99.90
20102;DHT22;10210;52.284;9.892;2024-01-16T06:25:41;3.40;99.90
20102;DHT22;10210;52.284;9.892;2024-01-16T06:28:07;3.40;99.90
20102;DHT22;10210;52.284;9.892;2024-01-16T06:30:32;3.40;99.90
20102;DHT22;10210;52.284;9.892;2024-01-16T06:32:58;3.40;99.90
20102;DHT22;10210;52.284;9.892;2024-01-16T06:35:24;3.40;99.90
20102;DHT22;10210;52.284;9.892;2024-01-16T06:37:50;3.50;99.90
20102;DHT22;10210;52.284;9.892;2024-01-16T06:40:16;3.50;99.90
20102;DHT22;10210;52.284;9.892;2024-01-16T06:42:41;3.40;99.90
20102;DHT22;10210;52.284;9.892;2024-01-16T06:45:07;3.40;99.90
20102;DHT22;10210;52.284;9.892;2024-01-16T06:47:33;3.40;99.90
20102;DHT22;10210;52.284;9.892;2024-01-16T06:49:58;3.40;99.90
20102;DHT22;10210;52.284;9.892;2024-01-16T06:52:24;3.40;99.90
20102;DHT22;10210;52.284;9.892;2024-01-16T06:54:50;3.40;99.90
20102;DHT22;10210;52.284;9.892;2024-01-16T06:57:16;3.40;99.90
20102;DHT22;10210;52.284;9.892;2024-01-16T06:59:41;3.40;99.90
20102;DHT22;10210;52.284;9.892;2024-01-16T07:02:07;3.40;99.90
20102;DHT22;10210;52.284;9.892;2024-01-16T07:04:33;3.40;99.90
20102;DHT22;10210;52.284;9.892;2024-01-16T07:06:59;3.40;99.90
20102;DHT22;10210;52.284;9.892;2024-01-16T07:09:25;3.50;99.90
20102;DHT22;10210;52.284;9.892;2024-01-16T07:11:53;3.50;99.90
20102;DHT22;10210;52.284;9.892;2024-01-16T07:14:19;3.40;99.90
20102;DHT22;10210;52.284;9.892;2024-01-16T07:16:45;3.40;99.90
20102;DHT22;10210;52.284;9.892;2024-01-16T07:19:11;3.50;99.90
20102;DHT22;10210;52.284;9.892;2024-01-16T07:21:37;3.50;99.90
20102;DHT22;10210;52.284;9.892;2024-01-16T07:24:03;3.50;99.90
20102;DHT22;10210;52.284;9.892;2024-01-16T07:26:29;3.50;99.90
20102;DHT22;10210;52.284;9.892;2024-01-16T07:28:55;3.50;99.90
20102;DHT22;10210;52.284;9.892;2024-01-16T07:31:21;3.50;99.90
20102;DHT22;10210;52.284;9.892;2024-01-16T07:33:47;3.50;99.90
20102;DHT22;10210;52.284;9.892;2024-01-16T07:36:13;3.50;99.90
20102;DHT22;10210;52.284;9.892;2024-01-16T07:38:39;3.50;99.90
20102;DHT22;10210;52.284;9.892;2024-01-16T07:41:05;3.40;99.90
20102;DHT22;10210;52.284;9.892;2024-01-16T07:43:31;3.40;99.90
20102;DHT22;10210;52.284;9.892;2024-01-16T07:45:57;3.40;99.90
20102;DHT22;10210;52.284;9.892;2024-01-16T07:48:23;3.40;99.90
20102;DHT22;10210;52.284;9.892;2024-01-16T07:50:50;3.40;99.90
20102;DHT22;10210;52.284;9.892;2024-01-16T07:53:16;3.40;99.90
20102;DHT22;10210;52.284;9.892;2024-01-16T07:55:42;3.40;99.90
20102;DHT22;10210;52.284;9.892;2024-01-16T07:58:12;3.40;99.90
20102;DHT22;10210;52.284;9.892;2024-01-16T08:00:39;3.40;99.90
20102;DHT22;10210;52.284;9.892;2024-01-16T08:03:07;3.40;99.90
20102;DHT22;10210;52.284;9.892;2024-01-16T08:05:37;3.40;99.90
20102;DHT22;10210;52.284;9.892;2024-01-16T08:08:03;3.40;99.90
20102;DHT22;10210;52.284;9.892;2024-01-16T08:10:29;3.40;99.90
20102;DHT22;10210;52.284;9.892;2024-01-16T08:12:55;3.40;99.90
20102;DHT22;10210;52.284;9.892;2024-01-16T08:15:21;3.40;99.90
20102;DHT22;10210;52.284;9.892;2024-01-16T08:17:47;3.40;99.90
20102;DHT22;10210;52.284;9.892;2024-01-16T08:20:13;3.40;99.90
20102;DHT22;10210;52.284;9.892;2024-01-16T08:22:39;3.40;99.90
20102;DHT22;10210;52.284;9.892;2024-01-16T08:25:05;3.40;99.90
20102;DHT22;10210;52.284;9.892;2024-01-16T08:27:31;3.40;99.90
20102;DHT22;10210;52.284;9.892;2024-01-16T08:29:57;3.50;99.90
20102;DHT22;10210;52.284;9.892;2024-01-16T08:32:22;3.50;99.90
20102;DHT22;10210;52.284;9.892;2024-01-16T08:34:48;3.50;99.90
20102;DHT22;10210;52.284;9.892;2024-01-16T08:37:14;3.50;99.90
20102;DHT22;10210;52.284;9.892;2024-01-16T08:39:39;3.50;99.90
20102;DHT22;10210;52.284;9.892;2024-01-16T08:42:05;3.50;99.90
20102;DHT22;10210;52.284;9.892;2024-01-16T08:44:31;3.50;99.90
20102;DHT22;10210;52.284;9.892;2024-01-16T08:46:57;3.50;99.90
20102;DHT22;10210;52.284;9.892;2024-01-16T08:49:24;3.60;99.90
20102;DHT22;10210;52.284;9.892;2024-01-16T08:51:50;3.60;99.90
20102;DHT22;10210;52.284;9.892;2024-01-16T08:54:16;3.60;99.90
20102;DHT22;10210;52.284;9.892;2024-01-16T08:56:41;3.60;99.90
20102;DHT22;10210;52.284;9.892;2024-01-16T08:59:07;3.70;99.90
20102;DHT22;10210;52.284;9.892;2024-01-16T09:01:33;3.60;99.90
20102;DHT22;10210;52.284;9.892;2024-01-16T09:03:59;3.70;99.90
20102;DHT22;10210;52.284;9.892;2024-01-16T09:06:25;3.70;99.90
20102;DHT22;10210;52.284;9.892;2024-01-16T09:08:50;3.70;99.90
20102;DHT22;10210;52.284;9.892;2024-01-16T09:11:16;3.70;99.90
20102;DHT22;10210;52.284;9.892;2024-01-16T09:13:42;3.70;99.90
20102;DHT22;10210;52.284;9.892;2024-01-16T09:16:07;3.80;99.90
20102;DHT22;10210;52.284;9.892;2024-01-16T09:18:33;3.70;99.90
20102;DHT22;10210;52.284;9.892;2024-01-16T09:20:59;3.80;99.90
20102;DHT22;10210;52.284;9.892;2024-01-16T09:23:24;3.80;99.90
20102;DHT22;10210;52.284;9.892;2024-01-16T09:25:50;3.80;99.90
20102;DHT22;10210;52.284;9.892;2024-01-16T09:28:16;3.90;99.90
20102;DHT22;10210;52.284;9.892;2024-01-16T09:30:42;3.90;99.90
20102;DHT22;10210;52.284;9.892;2024-01-16T09:33:07;4.00;99.90
20102;DHT22;10210;52.284;9.892;2024-01-16T09:35:35;4.10;99.90
20102;DHT22;10210;52.284;9.892;2024-01-16T09:38:01;4.20;99.90
20102;DHT22;10210;52.284;9.892;2024-01-16T09:40:27;4.20;99.90
20102;DHT22;10210;52.284;9.892;2024-01-16T09:42:53;4.30;99.90
20102;DHT22;10210;52.284;9.892;2024-01-16T09:45:20;4.40;99.90
20102;DHT22;10210;52.284;9.892;2024-01-16T09:47:51;4.50;99.90
20102;DHT22;10210;52.284;9.892;2024-01-16T09:50:18;4.60;99.90
20102;DHT22;10210;52.284;9.892;2024-01-16T09:52:47;4.70;99.90
20102;DHT22;10210;52.284;9.892;2024-01-16T09:55:14;4.70;99.90
20102;DHT22;10210;52.284;9.892;2024-01-16T09:57:41;4.80;99.90
20102;DHT22;10210;52.284;9.892;2024-01-16T10:00:10;4.90;99.90
20102;DHT22;10210;52.284;9.892;2024-01-16T10:02:40;4.90;99.90
20102;DHT22;10210;52.284;9.892;2024-01-16T10:05:10;5.00;99.90
20102;DHT22;10210;52.284;9.892;2024-01-16T10:07:41;5.10;99.90
20102;DHT22;10210;52.284;9.892;2024-01-16T10:10:11;5.10;99.90
20102;DHT22;10210;52.284;9.892;2024-01-16T10:12:38;5.10;99.90
20102;DHT22;10210;52.284;9.892;2024-01-16T10:15:06;5.10;99.90
20102;DHT22;10210;52.284;9.892;2024-01-16T10:17:40;5.20;99.90
20102;DHT22;10210;52.284;9.892;2024-01-16T10:20:09;5.20;99.90
20102;DHT22;10210;52.284;9.892;2024-01-16T10:22:39;5.20;99.90
20102;DHT22;10210;52.284;9.892;2024-01-16T10:25:06;5.20;99.90
20102;DHT22;10210;52.284;9.892;2024-01-16T10:27:34;5.30;99.90
20102;DHT22;10210;52.284;9.892;2024-01-16T10:30:00;5.30;99.90
20102;DHT22;10210;52.284;9.892;2024-01-16T10:32:33;5.30;99.90
20102;DHT22;10210;52.284;9.892;2024-01-16T10:37:44;5.30;99.90
20102;DHT22;10210;52.284;9.892;2024-01-16T10:40:19;5.30;99.90
20102;DHT22;10210;52.284;9.892;2024-01-16T10:43:05;5.20;99.90
20102;DHT22;10210;52.284;9.892;2024-01-16T10:45:32;5.20;99.90
20102;DHT22;10210;52.284;9.892;2024-01-16T10:48:06;5.10;99.90
20102;DHT22;10210;52.284;9.892;2024-01-16T10:50:34;5.10;99.90
20102;DHT22;10210;52.284;9.892;2024-01-16T10:53:06;5.00;99.90
20102;DHT22;10210;52.284;9.892;2024-01-16T10:55:52;5.00;99.90
20102;DHT22;10210;52.284;9.892;2024-01-16T10:58:22;5.00;99.90
20102;DHT22;10210;52.284;9.892;2024-01-16T11:00:51;5.00;99.90
20102;DHT22;10210;52.284;9.892;2024-01-16T11:03:37;4.90;99.90
20102;DHT22;10210;52.284;9.892;2024-01-16T11:06:06;4.90;99.90
20102;DHT22;10210;52.284;9.892;2024-01-16T11:08:36;4.90;99.90
20102;DHT22;10210;52.284;9.892;2024-01-16T11:11:04;4.90;99.90
20102;DHT22;10210;52.284;9.892;2024-01-16T11:13:34;4.90;99.90
20102;DHT22;10210;52.284;9.892;2024-01-16T11:16:03;4.90;99.90
20102;DHT22;10210;52.284;9.892;2024-01-16T11:18:31;4.90;99.90
20102;DHT22;10210;52.284;9.892;2024-01-16T11:20:58;4.90;99.90
20102;DHT22;10210;52.284;9.892;2024-01-16T11:23:25;4.90;99.90
20102;DHT22;10210;52.284;9.892;2024-01-16T11:25:51;4.90;99.90
20102;DHT22;10210;52.284;9.892;2024-01-16T11:28:16;4.90;99.90
20102;DHT22;10210;52.284;9.892;2024-01-16T11:30:44;4.90;99.90
20102;DHT22;10210;52.284;9.892;2024-01-16T11:35:57;4.90;99.90
20102;DHT22;10210;52.284;9.892;2024-01-16T11:38:24;4.90;99.90
20102;DHT22;10210;52.284;9.892;2024-01-16T11:40:57;4.90;99.90
20102;DHT22;10210;52.284;9.892;2024-01-16T11:45:58;5.00;99.90
20102;DHT22;10210;52.284;9.892;2024-01-16T11:48:25;5.00;99.90
20102;DHT22;10210;52.284;9.892;2024-01-16T11:50:52;5.00;99.90
20102;DHT22;10210;52.284;9.892;2024-01-16T11:53:38;5.00;99.90
20102;DHT22;10210;52.284;9.892;2024-01-16T11:56:30;5.00;99.90
20102;DHT22;10210;52.284;9.892;2024-01-16T12:02:02;5.00;99.90
20102;DHT22;10210;52.284;9.892;2024-01-16T12:04:34;5.00;99.90
20102;DHT22;10210;52.284;9.892;2024-01-16T12:07:00;5.00;99.90
20102;DHT22;10210;52.284;9.892;2024-01-16T12:09:27;5.00;99.90
20102;DHT22;10210;52.284;9.892;2024-01-16T12:12:00;5.00;99.90
20102;DHT22;10210;52.284;9.892;2024-01-16T12:14:27;5.00;99.90
20102;DHT22;10210;52.284;9.892;2024-01-16T12:17:11;5.00;99.90
20102;DHT22;10210;52.284;9.892;2024-01-16T12:19:37;5.00;99.90
20102;DHT22;10210;52.284;9.892;2024-01-16T12:22:07;5.00;99.90
20102;DHT22;10210;52.284;9.892;2024-01-16T12:24:35;5.00;99.90
20102;DHT22;10210;52.284;9.892;2024-01-16T12:27:02;5.00;99.90
20102;DHT22;10210;52.284;9.892;2024-01-16T12:29:29;5.00;99.90
20102;DHT22;10210;52.284;9.892;2024-01-16T12:32:06;5.00;99.90
20102;DHT22;10210;52.284;9.892;2024-01-16T12:34:47;5.00;99.90
20102;DHT22;10210;52.284;9.892;2024-01-16T12:37:13;5.00;99.90
20102;DHT22;10210;52.284;9.892;2024-01-16T12:39:40;5.00;99.90
20102;DHT22;10210;52.284;9.892;2024-01-16T12:42:08;5.00;99.90
20102;DHT22;10210;52.284;9.892;2024-01-16T12:44:35;5.00;99.90
20102;DHT22;10210;52.284;9.892;2024-01-16T12:47:02;5.00;99.90
20102;DHT22;10210;52.284;9.892;2024-01-16T12:49:28;4.90;99.90
20102;DHT22;10210;52.284;9.892;2024-01-16T12:54:47;5.00;99.90
20102;DHT22;10210;52.284;9.892;2024-01-16T12:57:18;5.00;99.90
20102;DHT22;10210;52.284;9.892;2024-01-16T12:59:46;5.00;99.90
20102;DHT22;10210;52.284;9.892;2024-01-16T13:02:32;5.00;99.90
20102;DHT22;10210;52.284;9.892;2024-01-16T13:04:59;4.90;99.90
20102;DHT22;10210;52.284;9.892;2024-01-16T13:07:28;4.90;99.90
20102;DHT22;10210;52.284;9.892;2024-01-16T13:10:12;4.90;99.90
20102;DHT22;10210;52.284;9.892;2024-01-16T13:12:41;4.90;99.90
20102;DHT22;10210;52.284;9.892;2024-01-16T13:15:07;4.90;99.90
20102;DHT22;10210;52.284;9.892;2024-01-16T13:17:34;4.90;99.90
20102;DHT22;10210;52.284;9.892;2024-01-16T13:20:01;4.90;99.90
20102;DHT22;10210;52.284;9.892;2024-01-16T13:22:28;4.90;99.90
20102;DHT22;10210;52.284;9.892;2024-01-16T13:24:54;4.80;99.90
20102;DHT22;10210;52.284;9.892;2024-01-16T13:27:21;4.90;99.90
20102;DHT22;10210;52.284;9.892;2024-01-16T13:29:47;4.80;99.90
20102;DHT22;10210;52.284;9.892;2024-01-16T13:32:13;4.80;99.90
20102;DHT22;10210;52.284;9.892;2024-01-16T13:34:39;4.80;99.90
20102;DHT22;10210;52.284;9.892;2024-01-16T13:37:04;4.80;99.90
20102;DHT22;10210;52.284;9.892;2024-01-16T13:39:30;4.80;99.90
20102;DHT22;10210;52.284;9.892;2024-01-16T13:42:01;4.80;99.90
20102;DHT22;10210;52.284;9.892;2024-01-16T13:44:31;4.80;99.90
20102;DHT22;10210;52.284;9.892;2024-01-16T13:46:56;4.80;99.90
20102;DHT22;10210;52.284;9.892;2024-01-16T13:49:22;4.80;99.90
20102;DHT22;10210;52.284;9.892;2024-01-16T13:51:48;4.80;99.90
20102;DHT22;10210;52.284;9.892;2024-01-16T13:54:13;4.80;99.90
20102;DHT22;10210;52.284;9.892;2024-01-16T13:56:40;4.70;99.90
20102;DHT22;10210;52.284;9.892;2024-01-16T13:59:06;4.70;99.90
20102;DHT22;10210;52.284;9.892;2024-01-16T14:01:31;4.70;99.90
20102;DHT22;10210;52.284;9.892;2024-01-16T14:03:58;4.70;99.90
20102;DHT22;10210;52.284;9.892;2024-01-16T14:06:24;4.70;99.90
20102;DHT22;10210;52.284;9.892;2024-01-16T14:08:50;4.70;99.90
20102;DHT22;10210;52.284;9.892;2024-01-16T14:11:16;4.70;99.90
20102;DHT22;10210;52.284;9.892;2024-01-16T14:13:41;4.70;99.90
20102;DHT22;10210;52.284;9.892;2024-01-16T14:16:08;4.70;99.90
20102;DHT22;10210;52.284;9.892;2024-01-16T14:18:34;4.70;99.90
20102;DHT22;10210;52.284;9.892;2024-01-16T14:21:00;4.70;99.90
20102;DHT22;10210;52.284;9.892;2024-01-16T14:23:25;4.70;99.90
20102;DHT22;10210;52.284;9.892;2024-01-16T14:25:51;4.70;99.90
20102;DHT22;10210;52.284;9.892;2024-01-16T14:28:16;4.60;99.90
20102;DHT22;10210;52.284;9.892;2024-01-16T14:30:42;4.60;99.90
20102;DHT22;10210;52.284;9.892;2024-01-16T14:33:08;4.60;99.90
20102;DHT22;10210;52.284;9.892;2024-01-16T14:35:34;4.60;99.90
20102;DHT22;10210;52.284;9.892;2024-01-16T14:37:59;4.60;99.90
20102;DHT22;10210;52.284;9.892;2024-01-16T14:40:25;4.60;99.90
20102;DHT22;10210;52.284;9.892;2024-01-16T14:42:52;4.60;99.90
20102;DHT22;10210;52.284;9.892;2024-01-16T14:45:25;4.60;99.90
20102;DHT22;10210;52.284;9.892;2024-01-16T14:47:52;4.60;99.90
20102;DHT22;10210;52.284;9.892;2024-01-16T14:50:19;4.60;99.90
20102;DHT22;10210;52.284;9.892;2024-01-16T14:52:48;4.60;99.90
20102;DHT22;10210;52.284;9.892;2024-01-16T14:55:14;4.60;99.90
20102;DHT22;10210;52.284;9.892;2024-01-16T14:57:40;4.50;99.90
20102;DHT22;10210;52.284;9.892;2024-01-16T15:00:12;4.50;99.90
20102;DHT22;10210;52.284;9.892;2024-01-16T15:02:51;4.50;99.90
20102;DHT22;10210;52.284;9.892;2024-01-16T15:05:17;4.50;99.90
20102;DHT22;10210;52.284;9.892;2024-01-16T15:07:45;4.40;99.90
20102;DHT22;10210;52.284;9.892;2024-01-16T15:10:11;4.40;99.90
20102;DHT22;10210;52.284;9.892;2024-01-16T15:12:38;4.40;99.90
20102;DHT22;10210;52.284;9.892;2024-01-16T15:15:09;4.50;99.90
20102;DHT22;10210;52.284;9.892;2024-01-16T15:17:37;4.50;99.90
20102;DHT22;10210;52.284;9.892;2024-01-16T15:20:03;4.50;99.90
20102;DHT22;10210;52.284;9.892;2024-01-16T15:22:36;4.40;99.90
20102;DHT22;10210;52.284;9.892;2024-01-16T15:25:03;4.40;99.90
20102;DHT22;10210;52.284;9.892;2024-01-16T15:27:30;4.40;99.90
20102;DHT22;10210;52.284;9.892;2024-01-16T15:29:56;4.40;99.90
20102;DHT22;10210;52.284;9.892;2024-01-16T15:32:23;4.30;99.90
20102;DHT22;10210;52.284;9.892;2024-01-16T15:34:49;4.30;99.90
20102;DHT22;10210;52.284;9.892;2024-01-16T15:37:16;4.30;99.90
20102;DHT22;10210;52.284;9.892;2024-01-16T15:39:41;4.30;99.90
20102;DHT22;10210;52.284;9.892;2024-01-16T15:42:07;4.20;99.90
20102;DHT22;10210;52.284;9.892;2024-01-16T15:44:33;4.20;99.90
20102;DHT22;10210;52.284;9.892;2024-01-16T15:47:00;4.20;99.90
20102;DHT22;10210;52.284;9.892;2024-01-16T15:49:27;4.20;99.90
20102;DHT22;10210;52.284;9.892;2024-01-16T15:52:01;4.10;99.90
20102;DHT22;10210;52.284;9.892;2024-01-16T15:54:30;4.00;99.90
20102;DHT22;10210;52.284;9.892;2024-01-16T15:56:56;4.00;99.90
20102;DHT22;10210;52.284;9.892;2024-01-16T15:59:22;4.00;99.90